createdAt,value
2023-04-01T00:03:34.458Z,9.32
2023-04-01T00:08:38.215Z,10.66
2023-04-01T00:13:43.501Z,10.14
2023-04-01T00:18:48.288Z,10.30
2023-04-01T00:23:52.630Z,10.56
2023-04-01T00:28:57.855Z,10.49
2023-04-01T00:34:01.431Z,10.14
2023-04-01T00:39:05.055Z,9.97
2023-04-01T00:44:21.409Z,10.24
2023-04-01T00:49:28.965Z,10.38
2023-04-01T00:54:33.326Z,10.19
2023-04-01T00:59:43.418Z,10.37
2023-04-01T01:04:47.488Z,8.82
2023-04-01T01:10:03.453Z,9.95
2023-04-01T01:15:15.975Z,10.61
2023-04-01T01:20:54.147Z,10.31
2023-04-01T01:26:25.632Z,10.12
2023-04-01T01:31:36.455Z,10.45
2023-04-01T01:36:46.128Z,10.04
2023-04-01T01:41:51.230Z,10.60
2023-04-01T01:46:54.787Z,9.51
2023-04-01T01:52:00.927Z,10.19
2023-04-01T01:57:08.979Z,10.40
2023-04-01T02:02:15.967Z,10.11
2023-04-01T02:07:26.183Z,10.27
2023-04-01T02:12:31.186Z,9.01
2023-04-01T02:17:37.978Z,10.16
2023-04-01T02:22:49.081Z,10.03
2023-04-01T02:27:53.358Z,9.96
2023-04-01T02:32:57.862Z,10.42
2023-04-01T02:38:03.474Z,9.91
2023-04-01T02:43:07.007Z,9.84
2023-04-01T02:48:10.829Z,9.69
2023-04-01T02:53:15.981Z,10.56
2023-04-01T02:58:19.746Z,10.56
2023-04-01T03:03:23.402Z,10.40
2023-04-01T03:08:28.269Z,10.59
2023-04-01T03:13:32.001Z,10.36
2023-04-01T03:18:36.148Z,10.56
2023-04-01T03:23:40.929Z,10.57
2023-04-01T03:28:44.406Z,10.02
2023-04-01T03:33:47.898Z,10.18
2023-04-01T03:38:53.013Z,8.95
2023-04-01T03:44:03.210Z,9.61
2023-04-01T03:49:12.352Z,10.34
2023-04-01T03:54:18.196Z,8.82
2023-04-01T03:59:21.807Z,8.22
2023-04-01T04:04:27.078Z,10.34
2023-04-01T04:09:34.380Z,9.99
2023-04-01T04:14:37.952Z,10.34
2023-04-01T04:19:42.145Z,9.23
2023-04-01T04:24:47.777Z,8.78
2023-04-01T04:29:51.392Z,8.86
2023-04-01T04:34:54.937Z,10.34
2023-04-01T04:39:59.717Z,10.37
2023-04-01T04:45:03.314Z,10.30
2023-04-01T04:50:09.000Z,10.19
2023-04-01T04:55:16.794Z,10.17
2023-04-01T05:00:24.146Z,8.14
2023-04-01T05:05:36.995Z,10.01
2023-04-01T05:10:42.968Z,10.00
2023-04-01T05:15:47.658Z,9.73
2023-04-01T05:20:53.952Z,9.72
2023-04-01T05:25:58.850Z,8.84
2023-04-01T05:31:07.073Z,9.77
2023-04-01T05:36:18.319Z,9.89
2023-04-01T05:41:23.270Z,9.53
2023-04-01T05:46:26.854Z,9.95
2023-04-01T05:51:50.607Z,9.93
2023-04-01T05:56:56.059Z,9.96
2023-04-01T06:02:00.191Z,10.00
2023-04-01T06:07:12.908Z,10.13
2023-04-01T06:12:35.461Z,9.73
2023-04-01T06:17:54.590Z,9.95
2023-04-01T06:23:17.284Z,9.56
2023-04-01T06:28:47.526Z,9.80
2023-04-01T06:34:03.823Z,10.21
2023-04-01T06:39:23.593Z,10.31
2023-04-01T06:44:40.591Z,8.06
2023-04-01T06:50:13.759Z,10.22
2023-04-01T06:55:55.313Z,9.68
2023-04-01T07:01:36.712Z,10.08
2023-04-01T07:06:44.959Z,10.29
2023-04-01T07:11:50.563Z,10.00
2023-04-01T07:17:22.234Z,10.47
2023-04-01T07:22:32.256Z,10.48
2023-04-01T07:27:55.412Z,10.41
2023-04-01T07:33:06.730Z,10.50
2023-04-01T07:38:23.305Z,10.11
2023-04-01T07:43:42.725Z,10.49
2023-04-01T07:49:08.682Z,10.21
2023-04-01T07:54:21.047Z,10.60
2023-04-01T07:59:32.940Z,10.69
2023-04-01T08:04:51.624Z,10.80
2023-04-01T08:10:05.166Z,10.69
2023-04-01T08:15:51.955Z,10.43
2023-04-01T08:21:16.443Z,10.74
2023-04-01T08:26:32.879Z,8.42
2023-04-01T08:31:43.055Z,10.39
2023-04-01T08:36:54.663Z,9.37
2023-04-01T08:42:33.916Z,10.84
2023-04-01T08:47:56.848Z,10.34
2023-04-01T08:53:09.072Z,10.68
2023-04-01T08:58:47.852Z,10.76
2023-04-01T09:04:18.501Z,10.60
2023-04-01T09:09:42.030Z,10.30
2023-04-01T09:15:14.363Z,10.70
2023-04-01T09:20:47.089Z,10.79
2023-04-01T09:26:05.399Z,10.85
2023-04-01T09:31:24.973Z,10.59
2023-04-01T09:36:49.255Z,10.68
2023-04-01T09:42:19.529Z,10.97
2023-04-01T09:47:50.897Z,10.69
2023-04-01T09:53:03.024Z,10.50
2023-04-01T09:58:46.015Z,11.33
2023-04-01T10:05:21.416Z,11.36
2023-04-01T10:11:01.022Z,11.11
2023-04-01T10:16:32.750Z,11.10
2023-04-01T10:22:02.918Z,9.14
2023-04-01T10:27:43.914Z,11.08
2023-04-01T10:33:37.679Z,11.22
2023-04-01T10:39:06.119Z,10.81
2023-04-01T10:44:48.286Z,11.22
2023-04-01T10:50:26.204Z,11.25
2023-04-01T10:56:10.154Z,11.37
2023-04-01T11:02:19.566Z,11.35
2023-04-01T11:08:13.445Z,11.30
2023-04-01T11:14:07.031Z,11.54
2023-04-01T11:19:46.732Z,11.38
2023-04-01T11:25:20.034Z,11.69
2023-04-01T11:30:59.893Z,11.69
2023-04-01T11:36:23.234Z,11.62
2023-04-01T11:41:40.149Z,12.01
2023-04-01T11:47:42.127Z,11.78
2023-04-01T11:52:59.525Z,12.08
2023-04-01T11:58:31.187Z,12.12
2023-04-01T12:04:05.891Z,12.11
2023-04-01T12:09:21.178Z,12.23
2023-04-01T12:14:35.089Z,12.27
2023-04-01T12:19:50.454Z,12.39
2023-04-01T12:25:03.076Z,12.09
2023-04-01T12:30:38.787Z,12.63
2023-04-01T12:35:57.460Z,12.46
2023-04-01T12:41:20.209Z,12.64
2023-04-01T12:46:34.241Z,10.71
2023-04-01T12:51:52.724Z,12.47
2023-04-01T12:57:09.260Z,12.19
2023-04-01T13:02:25.268Z,12.51
2023-04-01T13:07:48.996Z,12.43
2023-04-01T13:13:34.259Z,12.61
2023-04-01T13:18:50.760Z,11.86
2023-04-01T13:24:05.071Z,12.18
2023-04-01T13:29:18.878Z,12.38
2023-04-01T13:34:35.960Z,12.12
2023-04-01T13:39:50.105Z,12.14
2023-04-01T13:44:58.857Z,11.64
2023-04-01T13:50:28.499Z,12.16
2023-04-01T13:55:51.867Z,11.99
2023-04-01T14:01:07.880Z,11.78
2023-04-01T14:06:22.945Z,12.18
2023-04-01T14:11:39.430Z,12.18
2023-04-01T14:17:09.953Z,11.32
2023-04-01T14:22:27.364Z,11.80
2023-04-01T14:27:48.038Z,11.66
2023-04-01T14:32:54.683Z,12.20
2023-04-01T14:38:12.205Z,11.97
2023-04-01T14:43:45.001Z,11.92
2023-04-01T14:48:55.982Z,11.20
2023-04-01T14:54:08.247Z,11.88
2023-04-01T14:59:16.555Z,11.93
2023-04-01T15:04:51.410Z,10.32
2023-04-01T15:10:09.144Z,12.06
2023-04-01T15:15:26.071Z,12.11
2023-04-01T15:20:57.578Z,11.95
2023-04-01T15:26:25.980Z,11.91
2023-04-01T15:31:35.747Z,11.53
2023-04-01T15:36:45.431Z,12.18
2023-04-01T15:42:11.762Z,12.16
2023-04-01T15:47:35.805Z,11.89
2023-04-01T15:52:47.086Z,9.82
2023-04-01T15:58:08.802Z,11.64
2023-04-01T16:03:21.704Z,11.43
2023-04-01T16:08:54.277Z,12.20
2023-04-01T16:14:13.294Z,12.06
2023-04-01T16:19:54.571Z,12.25
2023-04-01T16:25:16.632Z,12.29
2023-04-01T16:30:37.284Z,10.08
2023-04-01T16:35:48.533Z,11.66
2023-04-01T16:41:09.250Z,12.01
2023-04-01T16:46:36.394Z,12.02
2023-04-01T16:51:48.100Z,11.56
2023-04-01T16:56:55.990Z,11.59
2023-04-01T17:02:11.481Z,11.77
2023-04-01T17:07:27.065Z,11.85
2023-04-01T17:12:39.121Z,12.03
2023-04-01T17:17:50.663Z,10.11
2023-04-01T17:23:00.031Z,11.96
2023-04-01T17:28:17.478Z,10.13
2023-04-01T17:33:47.126Z,12.11
2023-04-01T17:39:04.152Z,11.69
2023-04-01T17:44:24.336Z,11.50
2023-04-01T17:49:39.619Z,11.85
2023-04-01T17:54:48.911Z,11.56
2023-04-01T18:00:02.440Z,11.75
2023-04-01T18:05:32.830Z,11.56
2023-04-01T18:10:43.838Z,11.63
2023-04-01T18:15:52.162Z,11.37
2023-04-01T18:21:06.482Z,11.03
2023-04-01T18:26:15.173Z,9.82
2023-04-01T18:31:21.377Z,11.27
2023-04-01T18:36:37.941Z,10.80
2023-04-01T18:41:53.903Z,10.42
2023-04-01T18:47:07.404Z,11.36
2023-04-01T18:52:22.945Z,11.28
2023-04-01T18:57:28.501Z,9.90
2023-04-01T19:02:38.040Z,10.79
2023-04-01T19:07:46.710Z,10.59
2023-04-01T19:13:04.440Z,10.53
2023-04-01T19:18:28.015Z,10.90
2023-04-01T19:24:23.497Z,10.81
2023-04-01T19:29:42.801Z,10.43
2023-04-01T19:34:58.842Z,10.68
2023-04-01T19:40:19.162Z,10.66
2023-04-01T19:45:36.560Z,10.50
2023-04-01T19:50:45.716Z,10.41
2023-04-01T19:55:59.039Z,10.73
2023-04-01T20:01:06.449Z,10.48
2023-04-01T20:06:20.001Z,10.57
2023-04-01T20:11:46.699Z,10.34
2023-04-01T20:17:01.327Z,10.48
2023-04-01T20:22:12.506Z,10.00
2023-04-01T20:27:23.451Z,10.35
2023-04-01T20:32:52.424Z,10.42
2023-04-01T20:38:11.592Z,10.20
2023-04-01T20:43:37.817Z,10.38
2023-04-01T20:49:13.759Z,10.06
2023-04-01T20:54:31.531Z,10.26
2023-04-01T20:59:52.468Z,8.81
2023-04-01T21:05:28.713Z,10.37
2023-04-01T21:10:41.921Z,10.29
2023-04-01T21:16:00.794Z,10.19
2023-04-01T21:21:31.594Z,10.42
2023-04-01T21:26:50.569Z,8.65
2023-04-01T21:32:12.172Z,10.49
2023-04-01T21:37:38.984Z,10.55
2023-04-01T21:42:50.059Z,10.34
2023-04-01T21:48:30.743Z,10.19
2023-04-01T21:54:08.819Z,10.53
2023-04-01T21:59:50.821Z,10.20
2023-04-01T22:05:04.316Z,10.36
2023-04-01T22:10:21.683Z,9.95
2023-04-01T22:15:33.503Z,10.27
2023-04-01T22:20:46.516Z,10.41
2023-04-01T22:25:58.184Z,10.37
2023-04-01T22:31:04.867Z,10.34
2023-04-01T22:36:19.566Z,8.44
2023-04-01T22:41:34.573Z,10.27
2023-04-01T22:46:53.390Z,10.15
2023-04-01T22:52:02.675Z,10.48
2023-04-01T22:57:10.699Z,9.59
2023-04-01T23:02:20.627Z,10.56
2023-04-01T23:07:47.839Z,10.60
2023-04-01T23:12:56.209Z,10.32
2023-04-01T23:18:14.752Z,10.11
2023-04-01T23:23:30.678Z,10.18
2023-04-01T23:28:46.281Z,10.31
2023-04-01T23:33:56.097Z,9.44
2023-04-01T23:39:20.333Z,10.23
2023-04-01T23:44:27.512Z,10.16
2023-04-01T23:49:36.994Z,10.15
2023-04-01T23:54:46.206Z,9.82
